sensor_id;sensor_type;location;lat;lon;timestamp;temperature;humidity
33460;DHT22;19795;53.160;6.612;2023-07-28T03:47:28;17.70;99.90
33460;DHT22;19795;53.160;6.612;2023-07-28T03:49:54;17.70;99.90
33460;DHT22;19795;53.160;6.612;2023-07-28T03:52:23;17.70;99.90
33460;DHT22;19795;53.160;6.612;2023-07-28T03:54:49;17.70;99.90
33460;DHT22;19795;53.160;6.612;2023-07-28T03:57:25;17.70;99.90
33460;DHT22;19795;53.160;6.612;2023-07-28T03:59:54;17.70;99.90
33460;DHT22;19795;53.160;6.612;2023-07-28T04:02:43;17.70;99.90
33460;DHT22;19795;53.160;6.612;2023-07-28T04:05:14;17.70;99.90
33460;DHT22;19795;53.160;6.612;2023-07-28T04:07:42;17.70;99.90
33460;DHT22;19795;53.160;6.612;2023-07-28T04:10:10;17.70;99.90
33460;DHT22;19795;53.160;6.612;2023-07-28T04:12:36;17.70;99.90
33460;DHT22;19795;53.160;6.612;2023-07-28T04:15:02;17.80;99.90
33460;DHT22;19795;53.160;6.612;2023-07-28T04:17:28;17.80;99.90
33460;DHT22;19795;53.160;6.612;2023-07-28T04:19:53;17.80;99.90
33460;DHT22;19795;53.160;6.612;2023-07-28T04:22:19;17.80;99.90
33460;DHT22;19795;53.160;6.612;2023-07-28T04:24:47;17.80;99.90
33460;DHT22;19795;53.160;6.612;2023-07-28T04:27:13;17.80;99.90
33460;DHT22;19795;53.160;6.612;2023-07-28T04:29:39;17.80;99.90
33460;DHT22;19795;53.160;6.612;2023-07-28T04:32:05;17.80;99.90
33460;DHT22;19795;53.160;6.612;2023-07-28T04:34:33;17.80;99.90
33460;DHT22;19795;53.160;6.612;2023-07-28T04:36:59;17.80;99.90
33460;DHT22;19795;53.160;6.612;2023-07-28T04:39:25;17.90;99.90
33460;DHT22;19795;53.160;6.612;2023-07-28T04:41:53;17.90;99.90
33460;DHT22;19795;53.160;6.612;2023-07-28T04:44:18;17.90;99.90
33460;DHT22;19795;53.160;6.612;2023-07-28T04:46:45;17.90;99.90
33460;DHT22;19795;53.160;6.612;2023-07-28T04:49:14;17.90;99.90
33460;DHT22;19795;53.160;6.612;2023-07-28T04:51:40;17.90;99.90
33460;DHT22;19795;53.160;6.612;2023-07-28T04:54:05;18.00;99.90
33460;DHT22;19795;53.160;6.612;2023-07-28T04:56:31;18.00;99.90
33460;DHT22;19795;53.160;6.612;2023-07-28T04:58:57;18.00;99.90
33460;DHT22;19795;53.160;6.612;2023-07-28T05:01:24;18.00;99.90
33460;DHT22;19795;53.160;6.612;2023-07-28T05:03:50;17.90;99.90
33460;DHT22;19795;53.160;6.612;2023-07-28T05:06:16;17.90;99.90
33460;DHT22;19795;53.160;6.612;2023-07-28T05:08:41;18.00;99.90
33460;DHT22;19795;53.160;6.612;2023-07-28T05:11:07;18.00;99.90
33460;DHT22;19795;53.160;6.612;2023-07-28T05:13:33;18.00;99.90
33460;DHT22;19795;53.160;6.612;2023-07-28T05:15:58;18.10;99.90
33460;DHT22;19795;53.160;6.612;2023-07-28T05:18:25;18.10;99.90
33460;DHT22;19795;53.160;6.612;2023-07-28T05:20:50;18.10;99.90
33460;DHT22;19795;53.160;6.612;2023-07-28T05:23:16;18.10;99.90
33460;DHT22;19795;53.160;6.612;2023-07-28T05:25:42;18.10;99.90
33460;DHT22;19795;53.160;6.612;2023-07-28T05:28:08;18.10;99.90
33460;DHT22;19795;53.160;6.612;2023-07-28T05:30:33;18.10;99.90
33460;DHT22;19795;53.160;6.612;2023-07-28T05:32:59;18.00;99.90
33460;DHT22;19795;53.160;6.612;2023-07-28T05:35:25;17.90;99.90
33460;DHT22;19795;53.160;6.612;2023-07-28T05:37:51;18.10;99.90
33460;DHT22;19795;53.160;6.612;2023-07-28T05:40:19;18.20;99.90
33460;DHT22;19795;53.160;6.612;2023-07-28T05:42:45;18.30;99.90
33460;DHT22;19795;53.160;6.612;2023-07-28T05:45:11;18.30;99.90
33460;DHT22;19795;53.160;6.612;2023-07-28T05:47:39;18.30;99.90
33460;DHT22;19795;53.160;6.612;2023-07-28T05:50:05;18.40;99.90
33460;DHT22;19795;53.160;6.612;2023-07-28T05:52:31;18.50;99.90
33460;DHT22;19795;53.160;6.612;2023-07-28T05:54:56;18.50;99.90
33460;DHT22;19795;53.160;6.612;2023-07-28T05:57:22;18.50;99.90
33460;DHT22;19795;53.160;6.612;2023-07-28T05:59:48;18.50;99.90
33460;DHT22;19795;53.160;6.612;2023-07-28T06:02:14;18.60;99.90
33460;DHT22;19795;53.160;6.612;2023-07-28T06:04:40;18.60;99.90
33460;DHT22;19795;53.160;6.612;2023-07-28T06:07:06;18.60;99.90
33460;DHT22;19795;53.160;6.612;2023-07-28T06:09:31;18.60;99.90
33460;DHT22;19795;53.160;6.612;2023-07-28T06:11:57;18.60;99.90
33460;DHT22;19795;53.160;6.612;2023-07-28T06:14:23;18.90;99.90
33460;DHT22;19795;53.160;6.612;2023-07-28T06:16:48;19.00;99.90
33460;DHT22;19795;53.160;6.612;2023-07-28T06:19:14;19.20;99.90
33460;DHT22;19795;53.160;6.612;2023-07-28T06:21:42;19.10;99.90
33460;DHT22;19795;53.160;6.612;2023-07-28T06:24:08;19.00;99.90
33460;DHT22;19795;53.160;6.612;2023-07-28T06:26:33;19.00;99.90
33460;DHT22;19795;53.160;6.612;2023-07-28T06:29:01;19.00;99.90
33460;DHT22;19795;53.160;6.612;2023-07-28T06:31:27;19.00;99.90
33460;DHT22;19795;53.160;6.612;2023-07-28T06:33:53;19.10;99.90
33460;DHT22;19795;53.160;6.612;2023-07-28T06:36:18;19.20;99.90
33460;DHT22;19795;53.160;6.612;2023-07-28T06:38:44;19.30;99.90
33460;DHT22;19795;53.160;6.612;2023-07-28T06:41:13;19.20;99.90
33460;DHT22;19795;53.160;6.612;2023-07-28T06:43:41;19.20;99.90
33460;DHT22;19795;53.160;6.612;2023-07-28T06:46:07;19.30;99.90
33460;DHT22;19795;53.160;6.612;2023-07-28T06:48:33;19.40;99.90
33460;DHT22;19795;53.160;6.612;2023-07-28T06:50:58;19.40;99.90
33460;DHT22;19795;53.160;6.612;2023-07-28T06:53:24;19.30;99.90
33460;DHT22;19795;53.160;6.612;2023-07-28T06:55:50;19.30;99.90
33460;DHT22;19795;53.160;6.612;2023-07-28T06:58:15;19.50;99.90
33460;DHT22;19795;53.160;6.612;2023-07-28T07:00:44;19.60;99.90
33460;DHT22;19795;53.160;6.612;2023-07-28T07:03:10;20.10;99.90
33460;DHT22;19795;53.160;6.612;2023-07-28T07:05:36;20.70;99.90
33460;DHT22;19795;53.160;6.612;2023-07-28T07:08:01;21.10;99.90
33460;DHT22;19795;53.160;6.612;2023-07-28T07:10:27;21.20;17.70
33460;DHT22;19795;53.160;6.612;2023-07-28T07:12:53;21.40;63.60
33460;DHT22;19795;53.160;6.612;2023-07-28T07:15:19;21.80;1.00
33460;DHT22;19795;53.160;6.612;2023-07-28T07:17:47;22.20;99.90
33460;DHT22;19795;53.160;6.612;2023-07-28T07:20:12;22.20;99.90
33460;DHT22;19795;53.160;6.612;2023-07-28T07:22:38;23.30;1.00
33460;DHT22;19795;53.160;6.612;2023-07-28T07:25:04;23.80;99.90
33460;DHT22;19795;53.160;6.612;2023-07-28T07:27:30;23.60;1.00
33460;DHT22;19795;53.160;6.612;2023-07-28T07:29:56;22.90;99.90
33460;DHT22;19795;53.160;6.612;2023-07-28T07:32:22;22.10;99.90
33460;DHT22;19795;53.160;6.612;2023-07-28T07:34:48;22.00;99.90
33460;DHT22;19795;53.160;6.612;2023-07-28T07:37:13;21.80;26.90
33460;DHT22;19795;53.160;6.612;2023-07-28T07:39:39;21.60;99.90
33460;DHT22;19795;53.160;6.612;2023-07-28T07:42:09;21.40;99.90
33460;DHT22;19795;53.160;6.612;2023-07-28T07:44:37;21.30;99.90
33460;DHT22;19795;53.160;6.612;2023-07-28T07:47:15;21.00;99.90
33460;DHT22;19795;53.160;6.612;2023-07-28T07:49:43;21.00;1.00
33460;DHT22;19795;53.160;6.612;2023-07-28T07:52:09;20.90;1.00
33460;DHT22;19795;53.160;6.612;2023-07-28T07:54:35;20.80;1.00
33460;DHT22;19795;53.160;6.612;2023-07-28T07:57:02;21.10;1.00
33460;DHT22;19795;53.160;6.612;2023-07-28T07:59:30;21.20;99.90
33460;DHT22;19795;53.160;6.612;2023-07-28T08:01:59;21.30;99.90
33460;DHT22;19795;53.160;6.612;2023-07-28T08:04:28;21.30;99.90
33460;DHT22;19795;53.160;6.612;2023-07-28T08:06:53;21.40;99.90
33460;DHT22;19795;53.160;6.612;2023-07-28T08:09:19;21.20;99.90
33460;DHT22;19795;53.160;6.612;2023-07-28T08:11:53;21.00;99.90
33460;DHT22;19795;53.160;6.612;2023-07-28T08:14:19;21.10;99.90
33460;DHT22;19795;53.160;6.612;2023-07-28T08:16:55;21.60;99.90
33460;DHT22;19795;53.160;6.612;2023-07-28T08:19:23;22.00;99.90
33460;DHT22;19795;53.160;6.612;2023-07-28T08:21:51;21.90;99.90
33460;DHT22;19795;53.160;6.612;2023-07-28T08:24:17;21.80;99.90
33460;DHT22;19795;53.160;6.612;2023-07-28T08:26:45;21.60;99.90
33460;DHT22;19795;53.160;6.612;2023-07-28T08:29:13;21.60;99.90
33460;DHT22;19795;53.160;6.612;2023-07-28T08:31:38;21.60;92.70
33460;DHT22;19795;53.160;6.612;2023-07-28T08:34:07;21.30;99.90
33460;DHT22;19795;53.160;6.612;2023-07-28T08:36:36;21.70;99.90
33460;DHT22;19795;53.160;6.612;2023-07-28T08:39:22;22.10;1.00
33460;DHT22;19795;53.160;6.612;2023-07-28T08:41:53;22.20;78.50
33460;DHT22;19795;53.160;6.612;2023-07-28T08:44:22;22.50;99.90
33460;DHT22;19795;53.160;6.612;2023-07-28T08:46:48;22.70;99.90
33460;DHT22;19795;53.160;6.612;2023-07-28T08:49:13;22.70;99.90
33460;DHT22;19795;53.160;6.612;2023-07-28T08:51:42;22.80;57.50
33460;DHT22;19795;53.160;6.612;2023-07-28T08:54:08;22.70;99.90
33460;DHT22;19795;53.160;6.612;2023-07-28T08:56:34;22.90;99.90
33460;DHT22;19795;53.160;6.612;2023-07-28T08:58:59;23.00;1.00
33460;DHT22;19795;53.160;6.612;2023-07-28T09:01:25;23.40;99.90
33460;DHT22;19795;53.160;6.612;2023-07-28T09:03:51;23.90;99.90
33460;DHT22;19795;53.160;6.612;2023-07-28T09:06:17;24.30;99.90
33460;DHT22;19795;53.160;6.612;2023-07-28T09:08:46;26.20;1.00
33460;DHT22;19795;53.160;6.612;2023-07-28T09:11:13;25.80;1.00
33460;DHT22;19795;53.160;6.612;2023-07-28T09:13:40;24.60;99.90
33460;DHT22;19795;53.160;6.612;2023-07-28T09:16:19;23.30;1.00
33460;DHT22;19795;53.160;6.612;2023-07-28T09:18:45;22.70;99.90
33460;DHT22;19795;53.160;6.612;2023-07-28T09:21:21;23.10;99.90
33460;DHT22;19795;53.160;6.612;2023-07-28T09:23:47;22.90;72.60
33460;DHT22;19795;53.160;6.612;2023-07-28T09:26:16;23.50;1.00
33460;DHT22;19795;53.160;6.612;2023-07-28T09:28:42;23.90;1.00
33460;DHT22;19795;53.160;6.612;2023-07-28T09:31:09;23.70;64.50
33460;DHT22;19795;53.160;6.612;2023-07-28T09:33:37;23.80;1.00
33460;DHT22;19795;53.160;6.612;2023-07-28T09:36:13;23.40;1.00
33460;DHT22;19795;53.160;6.612;2023-07-28T09:38:41;22.70;99.90
33460;DHT22;19795;53.160;6.612;2023-07-28T09:41:09;22.70;99.90
33460;DHT22;19795;53.160;6.612;2023-07-28T09:43:39;22.70;1.00
33460;DHT22;19795;53.160;6.612;2023-07-28T09:46:09;23.10;99.90
33460;DHT22;19795;53.160;6.612;2023-07-28T09:48:45;23.20;1.00
33460;DHT22;19795;53.160;6.612;2023-07-28T09:51:40;23.50;1.00
33460;DHT22;19795;53.160;6.612;2023-07-28T09:54:23;24.40;1.00
33460;DHT22;19795;53.160;6.612;2023-07-28T09:56:54;24.90;1.00
33460;DHT22;19795;53.160;6.612;2023-07-28T10:30:53;23.20;1.00
33460;DHT22;19795;53.160;6.612;2023-07-28T10:33:36;23.30;1.00
33460;DHT22;19795;53.160;6.612;2023-07-28T10:36:32;24.50;1.00
33460;DHT22;19795;53.160;6.612;2023-07-28T10:39:02;25.50;1.00
33460;DHT22;19795;53.160;6.612;2023-07-28T10:41:37;25.20;99.90
33460;DHT22;19795;53.160;6.612;2023-07-28T10:44:03;24.50;99.90
33460;DHT22;19795;53.160;6.612;2023-07-28T10:46:29;24.00;99.90
33460;DHT22;19795;53.160;6.612;2023-07-28T10:48:55;23.90;1.00
33460;DHT22;19795;53.160;6.612;2023-07-28T10:51:22;23.90;1.00
33460;DHT22;19795;53.160;6.612;2023-07-28T10:53:51;25.10;1.00
33460;DHT22;19795;53.160;6.612;2023-07-28T10:56:16;26.00;99.90
33460;DHT22;19795;53.160;6.612;2023-07-28T11:02:52;26.50;99.90
33460;DHT22;19795;53.160;6.612;2023-07-28T11:05:39;25.50;99.90
33460;DHT22;19795;53.160;6.612;2023-07-28T11:08:58;25.00;99.90
33460;DHT22;19795;53.160;6.612;2023-07-28T11:11:44;25.20;99.90
33460;DHT22;19795;53.160;6.612;2023-07-28T11:14:26;25.70;99.90
33460;DHT22;19795;53.160;6.612;2023-07-28T11:17:05;26.00;99.90
33460;DHT22;19795;53.160;6.612;2023-07-28T11:19:36;25.60;1.00
33460;DHT22;19795;53.160;6.612;2023-07-28T11:22:36;25.90;1.00
33460;DHT22;19795;53.160;6.612;2023-07-28T11:28:36;27.50;99.90
33460;DHT22;19795;53.160;6.612;2023-07-28T11:31:43;27.60;99.90
33460;DHT22;19795;53.160;6.612;2023-07-28T11:37:29;28.20;99.90
33460;DHT22;19795;53.160;6.612;2023-07-28T11:40:39;26.80;99.90
33460;DHT22;19795;53.160;6.612;2023-07-28T11:43:25;25.90;99.90
33460;DHT22;19795;53.160;6.612;2023-07-28T11:51:42;27.00;99.90
33460;DHT22;19795;53.160;6.612;2023-07-28T11:54:15;28.20;99.90
33460;DHT22;19795;53.160;6.612;2023-07-28T11:56:55;28.30;99.90
33460;DHT22;19795;53.160;6.612;2023-07-28T11:59:24;28.00;99.90
33460;DHT22;19795;53.160;6.612;2023-07-28T12:04:27;27.60;99.90
33460;DHT22;19795;53.160;6.612;2023-07-28T12:07:27;26.60;1.00
33460;DHT22;19795;53.160;6.612;2023-07-28T12:09:53;26.10;1.00
33460;DHT22;19795;53.160;6.612;2023-07-28T12:12:29;25.90;99.90
33460;DHT22;19795;53.160;6.612;2023-07-28T12:14:56;26.90;1.00
33460;DHT22;19795;53.160;6.612;2023-07-28T12:17:31;26.30;99.90
33460;DHT22;19795;53.160;6.612;2023-07-28T12:20:05;24.90;1.00
33460;DHT22;19795;53.160;6.612;2023-07-28T12:23:08;24.70;1.00
33460;DHT22;19795;53.160;6.612;2023-07-28T12:25:36;24.40;1.00
33460;DHT22;19795;53.160;6.612;2023-07-28T12:28:03;24.30;1.00
33460;DHT22;19795;53.160;6.612;2023-07-28T12:30:28;24.70;99.90
33460;DHT22;19795;53.160;6.612;2023-07-28T12:32:57;24.90;99.90
33460;DHT22;19795;53.160;6.612;2023-07-28T12:35:24;24.80;99.90
33460;DHT22;19795;53.160;6.612;2023-07-28T12:37:51;25.20;99.90
33460;DHT22;19795;53.160;6.612;2023-07-28T12:40:17;25.30;99.90
33460;DHT22;19795;53.160;6.612;2023-07-28T12:42:47;25.40;99.90
33460;DHT22;19795;53.160;6.612;2023-07-28T12:45:14;25.60;99.90
33460;DHT22;19795;53.160;6.612;2023-07-28T12:47:48;25.90;99.90
33460;DHT22;19795;53.160;6.612;2023-07-28T12:50:36;26.30;99.90
33460;DHT22;19795;53.160;6.612;2023-07-28T12:53:02;26.50;1.00
33460;DHT22;19795;53.160;6.612;2023-07-28T12:55:31;27.40;99.90
33460;DHT22;19795;53.160;6.612;2023-07-28T12:57:57;26.50;99.90
33460;DHT22;19795;53.160;6.612;2023-07-28T13:00:32;26.00;1.00
33460;DHT22;19795;53.160;6.612;2023-07-28T13:03:01;25.90;99.90
33460;DHT22;19795;53.160;6.612;2023-07-28T13:05:32;25.30;99.90
33460;DHT22;19795;53.160;6.612;2023-07-28T13:07:58;26.00;99.90
33460;DHT22;19795;53.160;6.612;2023-07-28T13:10:31;25.90;99.90
33460;DHT22;19795;53.160;6.612;2023-07-28T13:12:56;27.00;99.90
33460;DHT22;19795;53.160;6.612;2023-07-28T13:15:22;27.30;99.90
33460;DHT22;19795;53.160;6.612;2023-07-28T13:17:48;27.60;99.90
33460;DHT22;19795;53.160;6.612;2023-07-28T13:20:13;28.20;99.90
33460;DHT22;19795;53.160;6.612;2023-07-28T13:22:39;28.00;99.90
33460;DHT22;19795;53.160;6.612;2023-07-28T13:25:05;27.50;99.90
33460;DHT22;19795;53.160;6.612;2023-07-28T13:27:31;27.50;99.90
33460;DHT22;19795;53.160;6.612;2023-07-28T13:29:57;27.40;99.90
33460;DHT22;19795;53.160;6.612;2023-07-28T13:32:25;27.00;99.90
33460;DHT22;19795;53.160;6.612;2023-07-28T13:34:51;26.90;99.90
33460;DHT22;19795;53.160;6.612;2023-07-28T13:37:20;26.80;99.90
33460;DHT22;19795;53.160;6.612;2023-07-28T13:39:48;26.10;99.90
33460;DHT22;19795;53.160;6.612;2023-07-28T13:42:14;25.80;99.90
33460;DHT22;19795;53.160;6.612;2023-07-28T13:44:42;25.70;99.90
33460;DHT22;19795;53.160;6.612;2023-07-28T13:47:07;25.30;99.90
33460;DHT22;19795;53.160;6.612;2023-07-28T13:49:36;25.90;99.90
33460;DHT22;19795;53.160;6.612;2023-07-28T13:52:04;26.10;99.90
33460;DHT22;19795;53.160;6.612;2023-07-28T13:54:30;25.50;1.00
33460;DHT22;19795;53.160;6.612;2023-07-28T13:56:56;24.90;99.90
33460;DHT22;19795;53.160;6.612;2023-07-28T13:59:22;24.90;99.90
33460;DHT22;19795;53.160;6.612;2023-07-28T14:01:51;25.20;99.90
33460;DHT22;19795;53.160;6.612;2023-07-28T14:04:16;25.50;99.90
33460;DHT22;19795;53.160;6.612;2023-07-28T14:06:42;25.70;99.90
33460;DHT22;19795;53.160;6.612;2023-07-28T14:09:08;25.70;99.90
33460;DHT22;19795;53.160;6.612;2023-07-28T14:11:35;25.50;99.90
33460;DHT22;19795;53.160;6.612;2023-07-28T14:14:03;25.20;99.90
33460;DHT22;19795;53.160;6.612;2023-07-28T14:16:29;24.60;99.90
33460;DHT22;19795;53.160;6.612;2023-07-28T14:18:55;24.40;99.90
33460;DHT22;19795;53.160;6.612;2023-07-28T14:21:21;24.10;99.90
33460;DHT22;19795;53.160;6.612;2023-07-28T14:23:46;25.10;99.90
33460;DHT22;19795;53.160;6.612;2023-07-28T14:26:19;26.80;99.90
33460;DHT22;19795;53.160;6.612;2023-07-28T14:28:47;28.30;99.90
33460;DHT22;19795;53.160;6.612;2023-07-28T14:31:13;27.80;99.90
33460;DHT22;19795;53.160;6.612;2023-07-28T14:33:38;26.90;99.90
33460;DHT22;19795;53.160;6.612;2023-07-28T14:36:04;25.90;99.90
33460;DHT22;19795;53.160;6.612;2023-07-28T14:38:30;25.10;99.90
33460;DHT22;19795;53.160;6.612;2023-07-28T14:40:56;24.90;99.90
33460;DHT22;19795;53.160;6.612;2023-07-28T14:43:22;24.80;99.90
33460;DHT22;19795;53.160;6.612;2023-07-28T14:45:49;25.10;99.90
33460;DHT22;19795;53.160;6.612;2023-07-28T14:48:16;25.60;99.90
33460;DHT22;19795;53.160;6.612;2023-07-28T14:50:44;26.40;99.90
33460;DHT22;19795;53.160;6.612;2023-07-28T14:53:36;26.90;99.90
33460;DHT22;19795;53.160;6.612;2023-07-28T14:56:04;26.60;99.90
33460;DHT22;19795;53.160;6.612;2023-07-28T14:58:33;26.50;99.90
33460;DHT22;19795;53.160;6.612;2023-07-28T15:00:59;26.00;99.90
33460;DHT22;19795;53.160;6.612;2023-07-28T15:03:27;25.50;99.90
33460;DHT22;19795;53.160;6.612;2023-07-28T15:05:56;24.90;99.90
33460;DHT22;19795;53.160;6.612;2023-07-28T15:08:22;24.80;99.90
33460;DHT22;19795;53.160;6.612;2023-07-28T15:10:48;24.80;99.90
33460;DHT22;19795;53.160;6.612;2023-07-28T15:13:13;24.90;99.90
33460;DHT22;19795;53.160;6.612;2023-07-28T15:15:39;25.30;99.90
33460;DHT22;19795;53.160;6.612;2023-07-28T15:18:05;25.30;99.90
33460;DHT22;19795;53.160;6.612;2023-07-28T15:20:32;25.60;99.90
33460;DHT22;19795;53.160;6.612;2023-07-28T15:22:58;26.50;99.90
33460;DHT22;19795;53.160;6.612;2023-07-28T15:25:25;26.30;99.90
33460;DHT22;19795;53.160;6.612;2023-07-28T15:27:51;25.30;99.90
33460;DHT22;19795;53.160;6.612;2023-07-28T15:30:16;25.20;99.90
33460;DHT22;19795;53.160;6.612;2023-07-28T15:32:42;25.20;99.90
33460;DHT22;19795;53.160;6.612;2023-07-28T15:35:08;24.50;99.90
33460;DHT22;19795;53.160;6.612;2023-07-28T15:37:35;24.40;99.90
33460;DHT22;19795;53.160;6.612;2023-07-28T15:40:00;24.20;99.90
33460;DHT22;19795;53.160;6.612;2023-07-28T15:42:28;24.70;99.90
33460;DHT22;19795;53.160;6.612;2023-07-28T15:44:54;25.20;99.90
33460;DHT22;19795;53.160;6.612;2023-07-28T15:47:36;25.40;99.90
33460;DHT22;19795;53.160;6.612;2023-07-28T15:50:05;25.20;99.90
33460;DHT22;19795;53.160;6.612;2023-07-28T15:52:33;24.70;99.90
33460;DHT22;19795;53.160;6.612;2023-07-28T15:54:59;24.20;99.90
33460;DHT22;19795;53.160;6.612;2023-07-28T15:57:25;24.10;99.90
33460;DHT22;19795;53.160;6.612;2023-07-28T15:59:51;24.00;99.90
33460;DHT22;19795;53.160;6.612;2023-07-28T16:02:17;24.10;99.90
33460;DHT22;19795;53.160;6.612;2023-07-28T16:04:42;23.90;99.90
33460;DHT22;19795;53.160;6.612;2023-07-28T16:07:08;23.90;99.90
33460;DHT22;19795;53.160;6.612;2023-07-28T16:09:34;23.80;99.90
33460;DHT22;19795;53.160;6.612;2023-07-28T16:12:03;23.90;99.90
33460;DHT22;19795;53.160;6.612;2023-07-28T16:14:29;23.90;99.90
33460;DHT22;19795;53.160;6.612;2023-07-28T16:16:54;24.00;99.90
33460;DHT22;19795;53.160;6.612;2023-07-28T16:19:20;24.20;99.90
33460;DHT22;19795;53.160;6.612;2023-07-28T16:21:48;24.40;99.90
33460;DHT22;19795;53.160;6.612;2023-07-28T16:24:15;24.30;99.90
33460;DHT22;19795;53.160;6.612;2023-07-28T16:26:44;24.30;99.90
33460;DHT22;19795;53.160;6.612;2023-07-28T16:29:13;24.50;99.90
33460;DHT22;19795;53.160;6.612;2023-07-28T16:31:39;24.80;99.90
33460;DHT22;19795;53.160;6.612;2023-07-28T16:34:04;24.90;1.00
33460;DHT22;19795;53.160;6.612;2023-07-28T16:36:30;24.70;99.90
33460;DHT22;19795;53.160;6.612;2023-07-28T16:38:56;24.70;99.90
33460;DHT22;19795;53.160;6.612;2023-07-28T16:41:22;24.50;99.90
33460;DHT22;19795;53.160;6.612;2023-07-28T16:43:47;24.60;99.90
33460;DHT22;19795;53.160;6.612;2023-07-28T16:46:13;24.60;99.90
33460;DHT22;19795;53.160;6.612;2023-07-28T16:48:39;24.60;1.00
33460;DHT22;19795;53.160;6.612;2023-07-28T16:51:04;24.40;99.90
33460;DHT22;19795;53.160;6.612;2023-07-28T16:53:30;24.10;99.90
33460;DHT22;19795;53.160;6.612;2023-07-28T16:55:56;23.90;99.90
33460;DHT22;19795;53.160;6.612;2023-07-28T16:58:21;24.50;99.90
33460;DHT22;19795;53.160;6.612;2023-07-28T17:00:47;26.10;99.90
33460;DHT22;19795;53.160;6.612;2023-07-28T17:03:13;26.70;99.90
33460;DHT22;19795;53.160;6.612;2023-07-28T17:05:39;27.20;99.90
33460;DHT22;19795;53.160;6.612;2023-07-28T17:08:04;27.20;99.90
33460;DHT22;19795;53.160;6.612;2023-07-28T17:10:30;27.20;99.90
33460;DHT22;19795;53.160;6.612;2023-07-28T17:12:56;26.80;99.90
33460;DHT22;19795;53.160;6.612;2023-07-28T17:15:24;26.50;99.90
33460;DHT22;19795;53.160;6.612;2023-07-28T17:17:50;26.40;99.90
33460;DHT22;19795;53.160;6.612;2023-07-28T17:20:16;26.80;99.90
33460;DHT22;19795;53.160;6.612;2023-07-28T17:22:42;26.80;99.90
33460;DHT22;19795;53.160;6.612;2023-07-28T17:25:10;26.90;99.90
33460;DHT22;19795;53.160;6.612;2023-07-28T17:27:36;26.80;99.90
33460;DHT22;19795;53.160;6.612;2023-07-28T17:30:02;26.10;99.90
33460;DHT22;19795;53.160;6.612;2023-07-28T17:32:28;25.60;99.90
33460;DHT22;19795;53.160;6.612;2023-07-28T17:34:53;25.60;99.90
33460;DHT22;19795;53.160;6.612;2023-07-28T17:37:19;25.50;99.90
33460;DHT22;19795;53.160;6.612;2023-07-28T17:39:45;25.30;99.90
33460;DHT22;19795;53.160;6.612;2023-07-28T17:42:11;25.20;99.90
33460;DHT22;19795;53.160;6.612;2023-07-28T17:44:37;25.10;99.90
33460;DHT22;19795;53.160;6.612;2023-07-28T17:47:03;25.20;99.90
33460;DHT22;19795;53.160;6.612;2023-07-28T17:49:28;26.00;99.90
33460;DHT22;19795;53.160;6.612;2023-07-28T17:51:54;27.00;99.90
33460;DHT22;19795;53.160;6.612;2023-07-28T17:54:20;27.30;99.90
33460;DHT22;19795;53.160;6.612;2023-07-28T17:56:45;27.50;99.90
33460;DHT22;19795;53.160;6.612;2023-07-28T17:59:11;27.70;99.90
33460;DHT22;19795;53.160;6.612;2023-07-28T18:01:36;27.50;99.90
33460;DHT22;19795;53.160;6.612;2023-07-28T18:04:02;26.60;99.90
33460;DHT22;19795;53.160;6.612;2023-07-28T18:06:28;25.70;99.90
33460;DHT22;19795;53.160;6.612;2023-07-28T18:08:54;24.70;99.90
33460;DHT22;19795;53.160;6.612;2023-07-28T18:11:19;23.90;99.90
33460;DHT22;19795;53.160;6.612;2023-07-28T18:13:45;23.00;99.90
33460;DHT22;19795;53.160;6.612;2023-07-28T18:16:11;22.70;99.90
33460;DHT22;19795;53.160;6.612;2023-07-28T18:18:40;22.60;99.90
33460;DHT22;19795;53.160;6.612;2023-07-28T18:21:05;22.50;99.90
33460;DHT22;19795;53.160;6.612;2023-07-28T18:23:31;22.40;99.90
33460;DHT22;19795;53.160;6.612;2023-07-28T18:25:57;22.20;99.90
33460;DHT22;19795;53.160;6.612;2023-07-28T18:28:22;22.00;1.00
33460;DHT22;19795;53.160;6.612;2023-07-28T18:30:48;21.90;1.00
33460;DHT22;19795;53.160;6.612;2023-07-28T18:33:14;21.70;1.00
33460;DHT22;19795;53.160;6.612;2023-07-28T18:39:34;21.40;86.10
33460;DHT22;19795;53.160;6.612;2023-07-28T18:45:29;21.20;99.90
33460;DHT22;19795;53.160;6.612;2023-07-28T18:47:54;21.10;99.90
33460;DHT22;19795;53.160;6.612;2023-07-28T18:50:20;21.10;99.90
33460;DHT22;19795;53.160;6.612;2023-07-28T18:52:46;21.00;99.90
33460;DHT22;19795;53.160;6.612;2023-07-28T18:55:12;20.90;99.90
33460;DHT22;19795;53.160;6.612;2023-07-28T18:57:37;20.90;99.90
33460;DHT22;19795;53.160;6.612;2023-07-28T19:00:04;20.80;99.90
33460;DHT22;19795;53.160;6.612;2023-07-28T19:02:30;20.60;99.90
33460;DHT22;19795;53.160;6.612;2023-07-28T19:04:56;20.70;1.00
33460;DHT22;19795;53.160;6.612;2023-07-28T19:07:22;20.60;97.70
33460;DHT22;19795;53.160;6.612;2023-07-28T19:09:50;20.60;1.00
33460;DHT22;19795;53.160;6.612;2023-07-28T19:12:16;20.60;1.00
33460;DHT22;19795;53.160;6.612;2023-07-28T19:14:42;20.50;1.00
33460;DHT22;19795;53.160;6.612;2023-07-28T19:17:09;20.50;98.60
33460;DHT22;19795;53.160;6.612;2023-07-28T19:19:35;20.40;17.30
33460;DHT22;19795;53.160;6.612;2023-07-28T19:22:01;20.30;99.90
33460;DHT22;19795;53.160;6.612;2023-07-28T19:24:28;20.20;67.90
33460;DHT22;19795;53.160;6.612;2023-07-28T19:26:53;20.20;1.00
33460;DHT22;19795;53.160;6.612;2023-07-28T19:29:19;20.10;99.90
33460;DHT22;19795;53.160;6.612;2023-07-28T19:31:46;20.00;1.00
33460;DHT22;19795;53.160;6.612;2023-07-28T19:34:15;19.90;99.90
33460;DHT22;19795;53.160;6.612;2023-07-28T19:36:40;20.00;99.90
33460;DHT22;19795;53.160;6.612;2023-07-28T19:39:06;19.90;1.00
33460;DHT22;19795;53.160;6.612;2023-07-28T19:41:32;19.90;1.00
33460;DHT22;19795;53.160;6.612;2023-07-28T19:43:57;19.80;99.90
33460;DHT22;19795;53.160;6.612;2023-07-28T19:46:23;19.70;99.90
33460;DHT22;19795;53.160;6.612;2023-07-28T19:48:51;19.70;1.00
33460;DHT22;19795;53.160;6.612;2023-07-28T19:51:18;19.70;99.90
33460;DHT22;19795;53.160;6.612;2023-07-28T19:53:44;19.70;61.20
33460;DHT22;19795;53.160;6.612;2023-07-28T19:56:11;19.70;99.90
33460;DHT22;19795;53.160;6.612;2023-07-28T19:58:37;19.60;99.90
33460;DHT22;19795;53.160;6.612;2023-07-28T20:01:02;19.70;1.00
33460;DHT22;19795;53.160;6.612;2023-07-28T20:03:28;19.60;99.90
33460;DHT22;19795;53.160;6.612;2023-07-28T20:05:54;19.70;54.10
33460;DHT22;19795;53.160;6.612;2023-07-28T20:08:19;19.60;1.00
33460;DHT22;19795;53.160;6.612;2023-07-28T20:10:45;19.60;99.90
33460;DHT22;19795;53.160;6.612;2023-07-28T20:13:11;19.60;99.90
33460;DHT22;19795;53.160;6.612;2023-07-28T20:15:36;19.60;31.10
33460;DHT22;19795;53.160;6.612;2023-07-28T20:18:02;19.50;99.90
33460;DHT22;19795;53.160;6.612;2023-07-28T20:20:28;19.50;99.90
33460;DHT22;19795;53.160;6.612;2023-07-28T20:22:53;19.40;99.90